sensor_id;sensor_type;location;lat;lon;timestamp;pressure;altitude;pressure_sealevel;temperature;humidity
6345;BME280;3205;42.666;23.264;2023-09-19T00:02:20;94761.31;;;16.08;100.00
6345;BME280;3205;42.666;23.264;2023-09-19T00:04:46;94765.41;;;16.02;100.00
6345;BME280;3205;42.666;23.264;2023-09-19T00:07:14;94769.91;;;15.98;100.00
6345;BME280;3205;42.666;23.264;2023-09-19T00:09:42;94770.31;;;16.00;100.00
6345;BME280;3205;42.666;23.264;2023-09-19T00:12:09;94769.69;;;16.06;100.00
6345;BME280;3205;42.666;23.264;2023-09-19T00:14:35;94770.91;;;16.12;100.00
6345;BME280;3205;42.666;23.264;2023-09-19T00:17:03;94773.22;;;16.14;100.00
6345;BME280;3205;42.666;23.264;2023-09-19T00:19:33;94764.78;;;16.12;100.00
6345;BME280;3205;42.666;23.264;2023-09-19T00:21:59;94762.84;;;16.09;100.00
6345;BME280;3205;42.666;23.264;2023-09-19T00:24:26;94764.69;;;16.05;100.00
6345;BME280;3205;42.666;23.264;2023-09-19T00:26:53;94754.75;;;16.02;100.00
6345;BME280;3205;42.666;23.264;2023-09-19T00:29:21;94757.34;;;15.98;100.00
6345;BME280;3205;42.666;23.264;2023-09-19T00:31:48;94761.38;;;15.89;100.00
6345;BME280;3205;42.666;23.264;2023-09-19T00:34:16;94750.00;;;15.92;100.00
6345;BME280;3205;42.666;23.264;2023-09-19T00:36:42;94741.81;;;15.81;100.00
6345;BME280;3205;42.666;23.264;2023-09-19T00:39:08;94747.88;;;15.78;100.00
6345;BME280;3205;42.666;23.264;2023-09-19T00:41:36;94750.59;;;15.82;100.00
6345;BME280;3205;42.666;23.264;2023-09-19T00:44:02;94751.66;;;15.77;100.00
6345;BME280;3205;42.666;23.264;2023-09-19T00:46:29;94755.50;;;15.80;100.00
6345;BME280;3205;42.666;23.264;2023-09-19T00:48:56;94764.75;;;15.86;100.00
6345;BME280;3205;42.666;23.264;2023-09-19T00:51:23;94760.84;;;15.80;100.00
6345;BME280;3205;42.666;23.264;2023-09-19T00:53:51;94755.38;;;15.73;100.00
6345;BME280;3205;42.666;23.264;2023-09-19T00:56:18;94752.97;;;15.64;100.00
6345;BME280;3205;42.666;23.264;2023-09-19T00:58:45;94756.03;;;15.66;100.00
6345;BME280;3205;42.666;23.264;2023-09-19T01:01:12;94748.03;;;15.66;100.00
6345;BME280;3205;42.666;23.264;2023-09-19T01:03:40;94742.88;;;15.55;100.00
6345;BME280;3205;42.666;23.264;2023-09-19T01:06:07;94746.31;;;15.55;100.00
6345;BME280;3205;42.666;23.264;2023-09-19T01:08:34;94745.97;;;15.57;100.00
6345;BME280;3205;42.666;23.264;2023-09-19T01:11:06;94744.47;;;15.59;100.00
6345;BME280;3205;42.666;23.264;2023-09-19T01:13:43;94746.31;;;15.55;100.00
6345;BME280;3205;42.666;23.264;2023-09-19T01:16:29;94742.69;;;15.44;100.00
6345;BME280;3205;42.666;23.264;2023-09-19T01:19:06;94746.69;;;15.35;100.00
6345;BME280;3205;42.666;23.264;2023-09-19T01:21:40;94757.13;;;15.43;100.00
6345;BME280;3205;42.666;23.264;2023-09-19T01:24:30;94754.88;;;15.45;100.00
6345;BME280;3205;42.666;23.264;2023-09-19T01:27:28;94748.50;;;15.50;100.00
6345;BME280;3205;42.666;23.264;2023-09-19T01:30:08;94750.88;;;15.55;100.00
6345;BME280;3205;42.666;23.264;2023-09-19T01:32:38;94751.91;;;15.50;100.00
6345;BME280;3205;42.666;23.264;2023-09-19T01:35:06;94755.19;;;15.40;100.00
6345;BME280;3205;42.666;23.264;2023-09-19T01:37:38;94748.50;;;15.50;100.00
6345;BME280;3205;42.666;23.264;2023-09-19T01:40:06;94757.69;;;15.52;100.00
6345;BME280;3205;42.666;23.264;2023-09-19T01:42:43;94759.59;;;15.52;100.00
6345;BME280;3205;42.666;23.264;2023-09-19T01:45:13;94749.25;;;15.50;100.00
6345;BME280;3205;42.666;23.264;2023-09-19T01:47:50;94745.28;;;15.41;100.00
6345;BME280;3205;42.666;23.264;2023-09-19T01:50:22;94754.81;;;15.42;100.00
6345;BME280;3205;42.666;23.264;2023-09-19T01:52:57;94752.22;;;15.45;100.00
6345;BME280;3205;42.666;23.264;2023-09-19T01:55:28;94753.41;;;15.48;100.00
6345;BME280;3205;42.666;23.264;2023-09-19T01:58:01;94748.59;;;15.34;100.00
6345;BME280;3205;42.666;23.264;2023-09-19T02:00:32;94749.16;;;15.24;100.00
6345;BME280;3205;42.666;23.264;2023-09-19T02:03:00;94755.19;;;15.21;100.00
6345;BME280;3205;42.666;23.264;2023-09-19T02:05:26;94754.84;;;15.23;100.00
6345;BME280;3205;42.666;23.264;2023-09-19T02:07:53;94756.81;;;15.26;100.00
6345;BME280;3205;42.666;23.264;2023-09-19T02:10:21;94745.50;;;15.32;100.00
6345;BME280;3205;42.666;23.264;2023-09-19T02:12:47;94755.47;;;15.35;100.00
6345;BME280;3205;42.666;23.264;2023-09-19T02:15:14;94741.72;;;15.33;100.00
6345;BME280;3205;42.666;23.264;2023-09-19T02:17:42;94759.13;;;15.27;100.00
6345;BME280;3205;42.666;23.264;2023-09-19T02:20:09;94754.75;;;15.19;100.00
6345;BME280;3205;42.666;23.264;2023-09-19T02:22:35;94746.06;;;15.22;100.00
6345;BME280;3205;42.666;23.264;2023-09-19T02:25:02;94740.06;;;15.25;100.00
6345;BME280;3205;42.666;23.264;2023-09-19T02:27:30;94740.41;;;15.24;100.00
6345;BME280;3205;42.666;23.264;2023-09-19T02:29:57;94739.19;;;15.21;100.00
6345;BME280;3205;42.666;23.264;2023-09-19T02:32:23;94737.22;;;15.18;100.00
6345;BME280;3205;42.666;23.264;2023-09-19T02:34:52;94737.38;;;15.06;100.00
6345;BME280;3205;42.666;23.264;2023-09-19T02:37:18;94722.53;;;14.86;100.00
6345;BME280;3205;42.666;23.264;2023-09-19T02:39:45;94720.69;;;14.90;100.00
6345;BME280;3205;42.666;23.264;2023-09-19T02:42:12;94726.88;;;14.94;100.00
6345;BME280;3205;42.666;23.264;2023-09-19T02:44:38;94726.47;;;14.92;100.00
6345;BME280;3205;42.666;23.264;2023-09-19T02:47:05;94722.25;;;14.91;100.00
6345;BME280;3205;42.666;23.264;2023-09-19T02:49:31;94722.75;;;14.97;100.00
6345;BME280;3205;42.666;23.264;2023-09-19T02:51:59;94719.31;;;14.96;100.00
6345;BME280;3205;42.666;23.264;2023-09-19T02:54:25;94713.97;;;14.96;100.00
6345;BME280;3205;42.666;23.264;2023-09-19T02:56:51;94718.09;;;14.94;100.00
6345;BME280;3205;42.666;23.264;2023-09-19T02:59:19;94715.38;;;14.90;100.00
6345;BME280;3205;42.666;23.264;2023-09-19T03:01:45;94709.59;;;14.85;100.00
6345;BME280;3205;42.666;23.264;2023-09-19T03:04:13;94702.28;;;14.82;100.00
6345;BME280;3205;42.666;23.264;2023-09-19T03:06:45;94703.25;;;14.74;100.00
6345;BME280;3205;42.666;23.264;2023-09-19T03:09:12;94690.19;;;14.66;100.00
6345;BME280;3205;42.666;23.264;2023-09-19T03:11:39;94695.34;;;14.59;100.00
6345;BME280;3205;42.666;23.264;2023-09-19T03:14:07;94694.94;;;14.57;100.00
6345;BME280;3205;42.666;23.264;2023-09-19T03:16:34;94698.97;;;14.51;100.00
6345;BME280;3205;42.666;23.264;2023-09-19T03:19:03;94703.66;;;14.38;100.00
6345;BME280;3205;42.666;23.264;2023-09-19T03:21:29;94696.97;;;14.29;100.00
6345;BME280;3205;42.666;23.264;2023-09-19T03:23:56;94696.16;;;14.25;100.00
6345;BME280;3205;42.666;23.264;2023-09-19T03:26:23;94693.94;;;14.27;100.00
6345;BME280;3205;42.666;23.264;2023-09-19T03:28:51;94697.56;;;14.38;100.00
6345;BME280;3205;42.666;23.264;2023-09-19T03:31:18;94692.75;;;14.43;100.00
6345;BME280;3205;42.666;23.264;2023-09-19T03:33:44;94695.75;;;14.42;100.00
6345;BME280;3205;42.666;23.264;2023-09-19T03:36:10;94703.56;;;14.35;100.00
6345;BME280;3205;42.666;23.264;2023-09-19T03:38:39;94705.75;;;14.29;100.00
6345;BME280;3205;42.666;23.264;2023-09-19T03:41:05;94707.06;;;14.20;100.00
6345;BME280;3205;42.666;23.264;2023-09-19T03:43:32;94712.09;;;14.25;100.00
6345;BME280;3205;42.666;23.264;2023-09-19T03:46:01;94712.94;;;14.29;100.00
6345;BME280;3205;42.666;23.264;2023-09-19T03:48:29;94720.75;;;14.22;100.00
6345;BME280;3205;42.666;23.264;2023-09-19T03:50:55;94714.25;;;14.19;100.00
6345;BME280;3205;42.666;23.264;2023-09-19T03:53:22;94718.75;;;14.34;100.00
6345;BME280;3205;42.666;23.264;2023-09-19T03:55:48;94722.81;;;14.28;100.00
6345;BME280;3205;42.666;23.264;2023-09-19T03:58:15;94720.75;;;14.22;100.00
6345;BME280;3205;42.666;23.264;2023-09-19T04:00:42;94715.78;;;14.20;100.00
6345;BME280;3205;42.666;23.264;2023-09-19T04:03:08;94708.19;;;14.19;100.00
6345;BME280;3205;42.666;23.264;2023-09-19T04:05:36;94714.16;;;14.16;100.00
6345;BME280;3205;42.666;23.264;2023-09-19T04:08:02;94722.06;;;14.12;100.00
6345;BME280;3205;42.666;23.264;2023-09-19T04:10:28;94720.00;;;14.06;100.00
6345;BME280;3205;42.666;23.264;2023-09-19T04:12:58;94738.38;;;14.11;100.00
6345;BME280;3205;42.666;23.264;2023-09-19T04:15:24;94721.88;;;14.06;100.00
6345;BME280;3205;42.666;23.264;2023-09-19T04:17:51;94731.16;;;14.27;100.00
6345;BME280;3205;42.666;23.264;2023-09-19T04:20:17;94726.00;;;14.34;100.00
6345;BME280;3205;42.666;23.264;2023-09-19T04:22:45;94732.97;;;14.42;100.00
6345;BME280;3205;42.666;23.264;2023-09-19T04:25:12;94715.16;;;14.42;100.00
6345;BME280;3205;42.666;23.264;2023-09-19T04:27:38;94719.97;;;14.56;100.00
6345;BME280;3205;42.666;23.264;2023-09-19T04:30:06;94720.13;;;14.63;100.00
6345;BME280;3205;42.666;23.264;2023-09-19T04:32:36;94721.38;;;14.69;100.00
6345;BME280;3205;42.666;23.264;2023-09-19T04:35:06;94722.75;;;14.78;100.00
6345;BME280;3205;42.666;23.264;2023-09-19T04:37:35;94721.13;;;14.92;100.00
6345;BME280;3205;42.666;23.264;2023-09-19T04:40:02;94710.69;;;15.03;100.00
6345;BME280;3205;42.666;23.264;2023-09-19T04:42:31;94716.91;;;15.10;100.00
6345;BME280;3205;42.666;23.264;2023-09-19T04:44:57;94718.38;;;15.27;100.00
6345;BME280;3205;42.666;23.264;2023-09-19T04:47:25;94718.13;;;15.32;100.00
6345;BME280;3205;42.666;23.264;2023-09-19T04:49:51;94723.34;;;15.47;100.00
6345;BME280;3205;42.666;23.264;2023-09-19T04:52:18;94714.59;;;15.69;100.00
6345;BME280;3205;42.666;23.264;2023-09-19T04:54:45;94719.53;;;15.93;100.00
6345;BME280;3205;42.666;23.264;2023-09-19T04:57:13;94710.53;;;16.27;100.00
6345;BME280;3205;42.666;23.264;2023-09-19T04:59:40;94718.88;;;16.47;100.00
6345;BME280;3205;42.666;23.264;2023-09-19T05:02:07;94716.16;;;16.73;100.00
6345;BME280;3205;42.666;23.264;2023-09-19T05:04:34;94711.91;;;16.98;100.00
6345;BME280;3205;42.666;23.264;2023-09-19T05:07:01;94711.41;;;17.22;100.00
6345;BME280;3205;42.666;23.264;2023-09-19T05:09:29;94727.06;;;17.53;100.00
6345;BME280;3205;42.666;23.264;2023-09-19T05:11:55;94732.28;;;17.82;100.00
6345;BME280;3205;42.666;23.264;2023-09-19T05:14:22;94736.34;;;18.09;100.00
6345;BME280;3205;42.666;23.264;2023-09-19T05:16:48;94729.34;;;18.41;100.00
6345;BME280;3205;42.666;23.264;2023-09-19T05:19:15;94734.50;;;18.73;100.00
6345;BME280;3205;42.666;23.264;2023-09-19T05:21:41;94736.91;;;18.92;100.00
6345;BME280;3205;42.666;23.264;2023-09-19T05:24:10;94735.91;;;19.25;100.00
6345;BME280;3205;42.666;23.264;2023-09-19T05:26:38;94731.81;;;19.58;100.00
6345;BME280;3205;42.666;23.264;2023-09-19T05:29:05;94728.06;;;20.12;100.00
6345;BME280;3205;42.666;23.264;2023-09-19T05:31:33;94742.00;;;21.44;100.00
6345;BME280;3205;42.666;23.264;2023-09-19T05:34:02;94750.75;;;22.30;100.00
6345;BME280;3205;42.666;23.264;2023-09-19T05:36:28;94755.75;;;22.72;100.00
6345;BME280;3205;42.666;23.264;2023-09-19T05:38:55;94750.44;;;23.02;100.00
6345;BME280;3205;42.666;23.264;2023-09-19T05:41:21;94742.78;;;23.33;100.00
6345;BME280;3205;42.666;23.264;2023-09-19T05:43:49;94747.91;;;23.54;100.00
6345;BME280;3205;42.666;23.264;2023-09-19T05:46:16;94736.88;;;22.72;100.00
6345;BME280;3205;42.666;23.264;2023-09-19T05:48:42;94738.38;;;22.36;100.00
6345;BME280;3205;42.666;23.264;2023-09-19T05:51:09;94741.69;;;22.54;100.00
6345;BME280;3205;42.666;23.264;2023-09-19T05:53:35;94743.88;;;22.66;100.00
6345;BME280;3205;42.666;23.264;2023-09-19T05:56:01;94739.13;;;22.80;100.00
6345;BME280;3205;42.666;23.264;2023-09-19T05:58:28;94743.28;;;22.88;100.00
6345;BME280;3205;42.666;23.264;2023-09-19T06:00:54;94743.63;;;22.90;100.00
6345;BME280;3205;42.666;23.264;2023-09-19T06:03:22;94734.19;;;22.72;100.00
6345;BME280;3205;42.666;23.264;2023-09-19T06:05:49;94729.88;;;22.81;100.00
6345;BME280;3205;42.666;23.264;2023-09-19T06:08:15;94733.59;;;23.27;100.00
6345;BME280;3205;42.666;23.264;2023-09-19T06:10:41;94725.22;;;23.82;100.00
6345;BME280;3205;42.666;23.264;2023-09-19T06:13:07;94735.19;;;24.11;100.00
6345;BME280;3205;42.666;23.264;2023-09-19T06:15:35;94733.41;;;24.01;100.00
6345;BME280;3205;42.666;23.264;2023-09-19T06:18:03;94730.75;;;23.97;100.00
6345;BME280;3205;42.666;23.264;2023-09-19T06:20:30;94725.75;;;24.22;100.00
6345;BME280;3205;42.666;23.264;2023-09-19T06:22:58;94725.19;;;24.80;100.00
6345;BME280;3205;42.666;23.264;2023-09-19T06:25:24;94716.09;;;25.32;100.00
6345;BME280;3205;42.666;23.264;2023-09-19T06:27:52;94723.09;;;26.20;100.00
6345;BME280;3205;42.666;23.264;2023-09-19T06:30:20;94715.34;;;27.54;82.43
6345;BME280;3205;42.666;23.264;2023-09-19T06:32:48;94730.75;;;27.57;76.97
6345;BME280;3205;42.666;23.264;2023-09-19T06:35:16;94726.50;;;27.44;82.88
6345;BME280;3205;42.666;23.264;2023-09-19T06:37:43;94725.97;;;27.36;79.47
6345;BME280;3205;42.666;23.264;2023-09-19T06:40:10;94735.38;;;27.03;85.10
6345;BME280;3205;42.666;23.264;2023-09-19T06:42:40;94736.66;;;26.35;88.13
6345;BME280;3205;42.666;23.264;2023-09-19T06:45:07;94732.13;;;26.48;91.05
6345;BME280;3205;42.666;23.264;2023-09-19T06:47:33;94729.28;;;26.04;95.66
6345;BME280;3205;42.666;23.264;2023-09-19T06:50:00;94739.56;;;24.77;98.96
6345;BME280;3205;42.666;23.264;2023-09-19T06:52:30;94725.66;;;24.29;100.00
6345;BME280;3205;42.666;23.264;2023-09-19T06:54:56;94742.34;;;24.24;100.00
6345;BME280;3205;42.666;23.264;2023-09-19T06:57:22;94743.19;;;24.67;100.00
6345;BME280;3205;42.666;23.264;2023-09-19T06:59:48;94737.34;;;25.14;100.00
6345;BME280;3205;42.666;23.264;2023-09-19T07:02:15;94740.53;;;25.29;100.00
6345;BME280;3205;42.666;23.264;2023-09-19T07:04:41;94739.56;;;24.96;100.00
6345;BME280;3205;42.666;23.264;2023-09-19T07:07:07;94740.50;;;25.09;100.00
6345;BME280;3205;42.666;23.264;2023-09-19T07:09:36;94735.19;;;25.45;100.00
6345;BME280;3205;42.666;23.264;2023-09-19T07:12:03;94737.75;;;25.51;99.15
6345;BME280;3205;42.666;23.264;2023-09-19T07:14:29;94735.28;;;24.99;100.00
6345;BME280;3205;42.666;23.264;2023-09-19T07:16:56;94737.06;;;24.86;100.00
6345;BME280;3205;42.666;23.264;2023-09-19T07:19:22;94738.38;;;24.55;100.00
6345;BME280;3205;42.666;23.264;2023-09-19T07:21:48;94739.81;;;24.82;100.00
6345;BME280;3205;42.666;23.264;2023-09-19T07:24:15;94738.41;;;24.97;100.00
6345;BME280;3205;42.666;23.264;2023-09-19T07:26:42;94740.97;;;24.85;100.00
6345;BME280;3205;42.666;23.264;2023-09-19T07:29:08;94743.59;;;24.88;100.00
6345;BME280;3205;42.666;23.264;2023-09-19T07:31:35;94736.84;;;24.96;100.00
6345;BME280;3205;42.666;23.264;2023-09-19T07:34:01;94741.78;;;24.82;100.00
6345;BME280;3205;42.666;23.264;2023-09-19T07:36:29;94742.38;;;24.47;100.00
6345;BME280;3205;42.666;23.264;2023-09-19T07:38:56;94738.59;;;24.41;100.00
6345;BME280;3205;42.666;23.264;2023-09-19T07:41:23;94739.91;;;24.56;100.00
6345;BME280;3205;42.666;23.264;2023-09-19T07:43:50;94743.91;;;24.48;100.00
6345;BME280;3205;42.666;23.264;2023-09-19T07:46:17;94737.38;;;24.19;100.00
6345;BME280;3205;42.666;23.264;2023-09-19T07:48:43;94732.66;;;24.27;100.00
6345;BME280;3205;42.666;23.264;2023-09-19T07:51:14;94739.72;;;24.44;100.00
6345;BME280;3205;42.666;23.264;2023-09-19T07:53:41;94733.78;;;24.52;100.00
6345;BME280;3205;42.666;23.264;2023-09-19T07:56:08;94742.03;;;24.68;100.00
6345;BME280;3205;42.666;23.264;2023-09-19T07:58:35;94746.38;;;24.85;100.00
6345;BME280;3205;42.666;23.264;2023-09-19T08:01:05;94748.84;;;25.18;100.00
6345;BME280;3205;42.666;23.264;2023-09-19T08:03:32;94739.72;;;25.32;100.00
6345;BME280;3205;42.666;23.264;2023-09-19T08:05:59;94739.47;;;25.61;100.00
6345;BME280;3205;42.666;23.264;2023-09-19T08:08:26;94729.91;;;25.76;100.00
6345;BME280;3205;42.666;23.264;2023-09-19T08:10:54;94730.50;;;25.84;100.00
6345;BME280;3205;42.666;23.264;2023-09-19T08:13:22;94730.41;;;25.87;100.00
6345;BME280;3205;42.666;23.264;2023-09-19T08:15:48;94729.94;;;25.92;99.00
6345;BME280;3205;42.666;23.264;2023-09-19T08:18:15;94731.78;;;25.95;97.41
6345;BME280;3205;42.666;23.264;2023-09-19T08:20:41;94718.22;;;26.30;96.32
6345;BME280;3205;42.666;23.264;2023-09-19T08:23:08;94713.97;;;26.45;92.64
6345;BME280;3205;42.666;23.264;2023-09-19T08:25:34;94717.50;;;26.90;91.43
6345;BME280;3205;42.666;23.264;2023-09-19T08:28:00;94705.06;;;27.62;87.50
6345;BME280;3205;42.666;23.264;2023-09-19T08:30:29;94721.00;;;28.25;82.24
6345;BME280;3205;42.666;23.264;2023-09-19T08:32:57;94720.56;;;28.52;80.54
6345;BME280;3205;42.666;23.264;2023-09-19T08:35:24;94725.72;;;28.83;74.78
6345;BME280;3205;42.666;23.264;2023-09-19T08:37:51;94726.16;;;28.82;71.47
6345;BME280;3205;42.666;23.264;2023-09-19T08:40:17;94727.13;;;28.88;74.45
6345;BME280;3205;42.666;23.264;2023-09-19T08:42:49;94711.03;;;28.68;73.46
6345;BME280;3205;42.666;23.264;2023-09-19T08:45:16;94719.06;;;28.72;72.99
6345;BME280;3205;42.666;23.264;2023-09-19T08:47:46;94719.44;;;28.61;74.78
6345;BME280;3205;42.666;23.264;2023-09-19T08:50:19;94714.25;;;28.30;71.23
6345;BME280;3205;42.666;23.264;2023-09-19T08:52:54;94715.41;;;27.67;78.92
6345;BME280;3205;42.666;23.264;2023-09-19T08:55:24;94714.09;;;26.86;84.53
6345;BME280;3205;42.666;23.264;2023-09-19T08:57:57;94710.16;;;26.43;89.87
6345;BME280;3205;42.666;23.264;2023-09-19T09:00:26;94708.06;;;26.50;91.65
6345;BME280;3205;42.666;23.264;2023-09-19T09:02:54;94708.00;;;26.82;92.15
6345;BME280;3205;42.666;23.264;2023-09-19T09:05:22;94701.84;;;26.50;92.01
6345;BME280;3205;42.666;23.264;2023-09-19T09:07:49;94704.81;;;26.24;93.29
6345;BME280;3205;42.666;23.264;2023-09-19T09:10:18;94706.34;;;26.56;93.11
6345;BME280;3205;42.666;23.264;2023-09-19T09:12:48;94698.56;;;27.02;90.21
6345;BME280;3205;42.666;23.264;2023-09-19T09:15:14;94699.50;;;27.12;90.41
6345;BME280;3205;42.666;23.264;2023-09-19T09:17:42;94697.09;;;27.14;88.62
6345;BME280;3205;42.666;23.264;2023-09-19T09:20:09;94694.56;;;27.48;85.06
6345;BME280;3205;42.666;23.264;2023-09-19T09:22:35;94688.59;;;27.40;85.99
6345;BME280;3205;42.666;23.264;2023-09-19T09:25:06;94681.69;;;27.64;85.93
6345;BME280;3205;42.666;23.264;2023-09-19T09:27:32;94661.03;;;27.54;82.58
6345;BME280;3205;42.666;23.264;2023-09-19T09:29:59;94685.63;;;27.22;85.63
6345;BME280;3205;42.666;23.264;2023-09-19T09:32:26;94682.66;;;26.44;89.37
6345;BME280;3205;42.666;23.264;2023-09-19T09:34:55;94678.97;;;26.35;97.69
6345;BME280;3205;42.666;23.264;2023-09-19T09:37:22;94667.88;;;26.45;99.57
6345;BME280;3205;42.666;23.264;2023-09-19T09:39:51;94668.47;;;26.53;94.93
6345;BME280;3205;42.666;23.264;2023-09-19T09:42:29;94667.72;;;27.37;91.41
6345;BME280;3205;42.666;23.264;2023-09-19T09:45:12;94668.44;;;28.16;78.75
6345;BME280;3205;42.666;23.264;2023-09-19T09:47:42;94657.44;;;28.44;74.85
6345;BME280;3205;42.666;23.264;2023-09-19T09:50:26;94646.44;;;28.48;75.78
6345;BME280;3205;42.666;23.264;2023-09-19T09:52:55;94656.06;;;27.24;83.49
6345;BME280;3205;42.666;23.264;2023-09-19T09:56:02;94662.97;;;26.56;89.15
6345;BME280;3205;42.666;23.264;2023-09-19T09:58:31;94660.47;;;26.62;94.14
6345;BME280;3205;42.666;23.264;2023-09-19T10:00:59;94655.38;;;26.80;95.40
6345;BME280;3205;42.666;23.264;2023-09-19T10:03:33;94646.28;;;26.26;97.16
6345;BME280;3205;42.666;23.264;2023-09-19T10:06:04;94655.50;;;26.28;100.00
6345;BME280;3205;42.666;23.264;2023-09-19T10:08:58;94656.38;;;26.10;100.00
6345;BME280;3205;42.666;23.264;2023-09-19T10:11:28;94648.81;;;25.50;100.00
6345;BME280;3205;42.666;23.264;2023-09-19T10:13:56;94643.09;;;25.29;100.00
6345;BME280;3205;42.666;23.264;2023-09-19T10:16:24;94643.94;;;25.61;100.00
6345;BME280;3205;42.666;23.264;2023-09-19T10:18:52;94650.88;;;25.62;100.00
6345;BME280;3205;42.666;23.264;2023-09-19T10:21:20;94640.75;;;25.47;100.00
6345;BME280;3205;42.666;23.264;2023-09-19T10:23:48;94651.06;;;25.16;100.00
6345;BME280;3205;42.666;23.264;2023-09-19T10:26:17;94642.00;;;25.26;100.00
6345;BME280;3205;42.666;23.264;2023-09-19T10:28:46;94642.38;;;25.44;100.00
6345;BME280;3205;42.666;23.264;2023-09-19T10:31:18;94640.22;;;25.55;100.00
6345;BME280;3205;42.666;23.264;2023-09-19T10:33:47;94632.75;;;25.59;100.00
6345;BME280;3205;42.666;23.264;2023-09-19T10:36:16;94634.75;;;25.74;100.00
6345;BME280;3205;42.666;23.264;2023-09-19T10:38:45;94636.25;;;25.59;100.00
6345;BME280;3205;42.666;23.264;2023-09-19T10:41:14;94637.91;;;25.53;100.00
6345;BME280;3205;42.666;23.264;2023-09-19T10:43:43;94639.78;;;25.56;100.00
6345;BME280;3205;42.666;23.264;2023-09-19T10:46:12;94625.44;;;25.40;100.00
6345;BME280;3205;42.666;23.264;2023-09-19T10:48:38;94629.78;;;25.53;100.00
6345;BME280;3205;42.666;23.264;2023-09-19T10:51:08;94617.13;;;25.66;100.00
6345;BME280;3205;42.666;23.264;2023-09-19T10:53:43;94623.09;;;25.77;100.00
6345;BME280;3205;42.666;23.264;2023-09-19T10:56:18;94620.00;;;25.59;100.00
6345;BME280;3205;42.666;23.264;2023-09-19T10:58:45;94613.38;;;25.60;100.00
6345;BME280;3205;42.666;23.264;2023-09-19T11:01:12;94613.88;;;25.55;100.00
6345;BME280;3205;42.666;23.264;2023-09-19T11:03:40;94607.13;;;25.63;100.00
6345;BME280;3205;42.666;23.264;2023-09-19T11:06:12;94613.53;;;25.38;100.00
6345;BME280;3205;42.666;23.264;2023-09-19T11:08:58;94613.81;;;25.59;100.00
6345;BME280;3205;42.666;23.264;2023-09-19T11:11:46;94613.06;;;25.74;100.00
6345;BME280;3205;42.666;23.264;2023-09-19T11:14:38;94614.00;;;25.84;100.00
6345;BME280;3205;42.666;23.264;2023-09-19T11:20:23;94598.66;;;25.61;100.00
6345;BME280;3205;42.666;23.264;2023-09-19T11:23:23;94604.84;;;25.62;100.00
6345;BME280;3205;42.666;23.264;2023-09-19T11:25:52;94590.69;;;25.54;100.00
6345;BME280;3205;42.666;23.264;2023-09-19T11:28:34;94601.03;;;25.59;100.00
6345;BME280;3205;42.666;23.264;2023-09-19T11:34:41;94575.81;;;26.26;100.00
6345;BME280;3205;42.666;23.264;2023-09-19T11:40:37;94574.72;;;25.60;100.00
6345;BME280;3205;42.666;23.264;2023-09-19T11:43:28;94575.78;;;25.31;100.00
6345;BME280;3205;42.666;23.264;2023-09-19T11:46:08;94572.06;;;25.41;100.00
6345;BME280;3205;42.666;23.264;2023-09-19T11:48:41;94561.94;;;25.60;100.00
6345;BME280;3205;42.666;23.264;2023-09-19T11:51:18;94552.66;;;25.77;100.00
6345;BME280;3205;42.666;23.264;2023-09-19T11:53:53;94564.41;;;26.03;100.00
6345;BME280;3205;42.666;23.264;2023-09-19T11:56:22;94565.34;;;25.96;100.00
6345;BME280;3205;42.666;23.264;2023-09-19T11:58:50;94561.97;;;25.92;100.00
6345;BME280;3205;42.666;23.264;2023-09-19T12:01:22;94551.88;;;26.09;100.00
6345;BME280;3205;42.666;23.264;2023-09-19T12:03:53;94550.97;;;25.83;100.00
6345;BME280;3205;42.666;23.264;2023-09-19T12:06:20;94553.81;;;25.60;100.00
6345;BME280;3205;42.666;23.264;2023-09-19T12:08:47;94540.19;;;25.48;100.00
6345;BME280;3205;42.666;23.264;2023-09-19T12:11:16;94532.16;;;25.45;100.00
6345;BME280;3205;42.666;23.264;2023-09-19T12:13:44;94536.63;;;25.51;100.00
6345;BME280;3205;42.666;23.264;2023-09-19T12:16:14;94529.97;;;25.71;100.00
6345;BME280;3205;42.666;23.264;2023-09-19T12:18:41;94531.97;;;25.67;100.00
6345;BME280;3205;42.666;23.264;2023-09-19T12:21:08;94528.69;;;25.60;100.00
6345;BME280;3205;42.666;23.264;2023-09-19T12:23:57;94515.31;;;25.37;100.00
6345;BME280;3205;42.666;23.264;2023-09-19T12:26:23;94517.41;;;25.30;100.00
6345;BME280;3205;42.666;23.264;2023-09-19T12:28:50;94508.00;;;24.83;100.00
6345;BME280;3205;42.666;23.264;2023-09-19T12:31:18;94504.81;;;24.88;100.00
6345;BME280;3205;42.666;23.264;2023-09-19T12:33:46;94504.38;;;24.89;100.00
6345;BME280;3205;42.666;23.264;2023-09-19T12:36:20;94493.56;;;24.89;100.00
6345;BME280;3205;42.666;23.264;2023-09-19T12:38:50;94494.34;;;24.90;100.00
6345;BME280;3205;42.666;23.264;2023-09-19T12:41:19;94498.91;;;24.93;100.00
6345;BME280;3205;42.666;23.264;2023-09-19T12:43:46;94485.88;;;24.88;100.00
6345;BME280;3205;42.666;23.264;2023-09-19T12:46:13;94501.44;;;24.84;100.00
6345;BME280;3205;42.666;23.264;2023-09-19T12:48:40;94503.69;;;24.50;100.00
6345;BME280;3205;42.666;23.264;2023-09-19T12:51:10;94503.66;;;24.70;100.00
6345;BME280;3205;42.666;23.264;2023-09-19T12:53:39;94498.59;;;24.72;100.00
6345;BME280;3205;42.666;23.264;2023-09-19T12:56:08;94498.00;;;24.64;100.00
6345;BME280;3205;42.666;23.264;2023-09-19T12:58:36;94497.88;;;24.52;100.00
6345;BME280;3205;42.666;23.264;2023-09-19T13:01:15;94498.97;;;24.54;100.00
6345;BME280;3205;42.666;23.264;2023-09-19T13:03:41;94476.31;;;24.48;100.00
6345;BME280;3205;42.666;23.264;2023-09-19T13:06:07;94491.13;;;24.60;100.00
6345;BME280;3205;42.666;23.264;2023-09-19T13:08:36;94482.53;;;24.65;100.00
6345;BME280;3205;42.666;23.264;2023-09-19T13:11:08;94482.53;;;24.65;100.00
6345;BME280;3205;42.666;23.264;2023-09-19T13:13:36;94475.00;;;24.72;100.00
6345;BME280;3205;42.666;23.264;2023-09-19T13:16:03;94480.78;;;24.74;100.00
6345;BME280;3205;42.666;23.264;2023-09-19T13:18:42;94472.81;;;24.67;100.00
6345;BME280;3205;42.666;23.264;2023-09-19T13:21:11;94465.31;;;24.74;100.00
6345;BME280;3205;42.666;23.264;2023-09-19T13:23:41;94457.53;;;24.76;100.00